map of YGK home
YGK - Airport
Location
City:  Kingston, Ontario, Canada
Name:Norman Rogers Airport
ICAO:CYGK
IATA:YGK

Details
Type:Airport (Airfield)
Use:Public/Civil
Latitude:4413'33"N (44.225833)
Longitude:7635'48"W (-76.596666)
Elevation:303 ft (92 m)
Variation:12.24W (WMM2015v2 magnetic declination)
0.06 annual change
Runways:2
Longest:4929 ft (1502 m), paved

Time
Time Zone:UTC-5 (DST-4)
Local Time:

Weather
METAR:CYGK 041400Z 18004KT 5SM BR BKN008 OVC022 02/02 A2996 RMK SF6SC2 SLP150
TAF:CYGK 041240Z 0413/0501 21010KT P6SM OVC015
TEMPO 0413/0417 2SM -DZ BR OVC007
FM041700 18015KT P6SM SCT010 OVC030
TEMPO 0417/0420 BKN010 OVC030
FM042000 15015KT P6SM BKN040
FM042300 18010KT P6SM SCT050
RMK NXT FCST BY 042000Z

Related Locations
Nearby:
Farthest:YAUG: 11508 mi / 18521 km
Augusta [Augusta Airport], WA, AU

Find:

   beyond  
but within

Other Information
Maps:
NOTAMs:
Links:
Sources:

  
  • flag of Canada
  • flag of Ontario
  

Airport Diagram

Airport diagram for YGK

Airport diagram PDF

Sectional Chart

Flight Planning
at skyvector.com

Satellite Image

Google Maps Satellite view

 

Copyright © 2004-2019 Karl L. Swartz. All rights reserved.
The Great Circle Mapper name and logo are trademarks of the Great Circle Mapper.
All other trademarks mentioned herein belong to their respective owners.
Please see credits for attibutions and further copyright information.

  Follow gcmap on Facebook Follow gcmap on Twitter GCmap on LinkedIn

hCard Microformat

Geo Microformat